Time;durP1;ratioP1;P1;durP2;ratioP2;P2;SDS_P1;SDS_P2;PMS_P1;PMS_P2;Temp;Humidity;BMP_temperature;BMP_pressure;BME280_temperature;BME280_humidity;BME280_pressure;Samples;Min_cycle;Max_cycle;Signal;HPM_P1;HPM_P2
2022/05/30 00:01:18;;;;;;;4.03;1.30;;;7.40;68.50;;;;;;5014245;28;20028;-78
2022/05/30 00:03:43;;;;;;;4.18;1.08;;;7.50;68.70;;;;;;5014399;28;20030;-78
2022/05/30 00:06:12;;;;;;;2.70;1.25;;;7.40;68.60;;;;;;5014153;28;20068;-78
2022/05/30 00:08:37;;;;;;;2.85;1.48;;;7.40;68.90;;;;;;5013370;28;20080;-77
2022/05/30 00:11:05;;;;;;;3.05;1.42;;;7.30;69.00;;;;;;5014138;28;20022;-77
2022/05/30 00:13:31;;;;;;;4.03;1.20;;;7.30;68.90;;;;;;5014026;28;20425;-77
2022/05/30 00:15:57;;;;;;;1.50;1.35;;;7.30;69.10;;;;;;5014026;28;20105;-78
2022/05/30 00:18:22;;;;;;;4.43;1.85;;;7.10;69.30;;;;;;5014146;28;20390;-78
2022/05/30 00:20:49;;;;;;;1.55;1.02;;;7.20;69.30;;;;;;5013934;28;20026;-77
2022/05/30 00:23:15;;;;;;;2.03;1.30;;;7.20;69.30;;;;;;4999491;28;20026;-78
2022/05/30 00:25:42;;;;;;;3.17;1.17;;;7.10;69.20;;;;;;5014644;28;20497;-78
2022/05/30 00:28:08;;;;;;;1.88;0.90;;;7.10;69.00;;;;;;5014013;28;20026;-77
2022/05/30 00:30:33;;;;;;;2.60;1.20;;;7.10;69.00;;;;;;5013627;28;20026;-77
2022/05/30 00:32:59;;;;;;;4.53;1.52;;;7.10;69.20;;;;;;5013875;28;20061;-77
2022/05/30 00:35:24;;;;;;;2.70;1.35;;;7.10;69.30;;;;;;5013555;28;20501;-78
2022/05/30 00:37:50;;;;;;;1.55;1.20;;;7.00;69.40;;;;;;5013530;28;20036;-77
2022/05/30 00:40:16;;;;;;;2.70;1.08;;;7.00;69.40;;;;;;5013327;28;20037;-77
2022/05/30 00:42:41;;;;;;;5.80;1.52;;;6.90;69.60;;;;;;5013725;28;20053;-77
2022/05/30 00:45:08;;;;;;;3.88;1.20;;;6.80;69.70;;;;;;5013719;28;20033;-78
2022/05/30 00:47:33;;;;;;;3.42;1.00;;;6.70;70.40;;;;;;5013350;28;20060;-77
2022/05/30 00:49:59;;;;;;;3.58;1.27;;;6.60;70.50;;;;;;5013520;28;20053;-78
2022/05/30 00:52:42;;;;;;;4.10;1.52;;;6.70;70.50;;;;;;5013326;28;20117;-77
2022/05/30 00:55:21;;;;;;;2.17;1.52;;;6.70;71.30;;;;;;5013345;28;20022;-78
2022/05/30 00:57:47;;;;;;;3.33;1.20;;;6.70;70.50;;;;;;5012961;28;20387;-78
2022/05/30 01:00:16;;;;;;;3.22;1.50;;;6.80;70.10;;;;;;5013053;28;20029;-77
2022/05/30 01:02:43;;;;;;;2.95;1.55;;;6.70;70.10;;;;;;5013207;28;20030;-78
2022/05/30 01:08:00;;;;;;;4.07;1.67;;;6.70;70.60;;;;;;5014204;28;20129;-78
2022/05/30 01:10:26;;;;;;;2.60;1.38;;;6.70;70.60;;;;;;5012827;28;20036;-78
2022/05/30 01:12:55;;;;;;;2.30;1.20;;;6.70;70.50;;;;;;5013054;28;20128;-79
2022/05/30 01:15:23;;;;;;;3.90;1.52;;;6.80;69.90;;;;;;5013072;28;20092;-79
2022/05/30 01:18:01;;;;;;;2.95;1.67;;;6.70;69.90;;;;;;5013672;28;20022;-78
2022/05/30 01:20:51;;;;;;;2.67;1.30;;;6.70;69.50;;;;;;5014854;28;20033;-78
2022/05/30 01:23:29;;;;;;;3.00;1.15;;;6.60;69.60;;;;;;5014564;28;20033;-78
2022/05/30 01:26:11;;;;;;;4.28;1.10;;;6.60;69.80;;;;;;5013329;28;20026;-78
2022/05/30 01:28:49;;;;;;;2.85;1.20;;;6.60;69.50;;;;;;5012874;28;20018;-78
2022/05/30 01:31:16;;;;;;;2.30;0.98;;;6.60;69.40;;;;;;5012878;28;20471;-77
2022/05/30 01:33:43;;;;;;;2.60;1.50;;;6.70;69.50;;;;;;5012754;28;20029;-77
2022/05/30 01:36:09;;;;;;;2.35;1.23;;;6.60;69.40;;;;;;5012720;28;20072;-79
2022/05/30 01:38:35;;;;;;;2.65;1.48;;;6.70;69.60;;;;;;4996413;28;20185;-79
2022/05/30 01:41:01;;;;;;;3.17;1.58;;;6.60;69.30;;;;;;5012792;28;20055;-79
2022/05/30 01:43:27;;;;;;;4.35;1.17;;;6.60;69.20;;;;;;5012771;28;20022;-78
2022/05/30 01:45:52;;;;;;;3.92;1.20;;;6.60;69.50;;;;;;5012576;28;20026;-79
2022/05/30 01:48:18;;;;;;;1.55;1.02;;;6.60;69.60;;;;;;5012532;28;20092;-79
2022/05/30 01:50:45;;;;;;;3.15;1.10;;;6.60;69.50;;;;;;5012364;28;20061;-78
2022/05/30 01:53:11;;;;;;;1.27;0.88;;;6.60;69.30;;;;;;5012472;28;20573;-78
2022/05/30 01:55:37;;;;;;;4.78;1.48;;;6.50;69.20;;;;;;5012443;28;20037;-78
2022/05/30 01:58:03;;;;;;;7.43;1.63;;;6.50;69.60;;;;;;4996149;28;20025;-78
2022/05/30 02:00:29;;;;;;;2.78;0.93;;;6.60;69.80;;;;;;5012273;28;20363;-78
2022/05/30 02:02:55;;;;;;;2.40;1.10;;;6.60;69.90;;;;;;5012157;28;20030;-78
2022/05/30 02:05:20;;;;;;;2.05;1.00;;;6.50;70.10;;;;;;5012173;28;20034;-78
2022/05/30 02:07:46;;;;;;;4.70;1.25;;;6.50;70.10;;;;;;5011619;28;20026;-77
2022/05/30 02:10:12;;;;;;;4.18;1.40;;;6.50;70.20;;;;;;5012287;28;20113;-77
2022/05/30 02:12:38;;;;;;;5.53;1.20;;;6.50;70.10;;;;;;5011977;28;20029;-78
2022/05/30 02:15:04;;;;;;;2.78;1.15;;;6.40;70.50;;;;;;5012227;28;20437;-78
2022/05/30 02:17:32;;;;;;;5.53;1.50;;;6.40;70.30;;;;;;5012069;28;20056;-78
2022/05/30 02:19:58;;;;;;;3.22;1.17;;;6.40;70.00;;;;;;5011849;28;20022;-78
2022/05/30 02:22:28;;;;;;;4.00;1.30;;;6.40;70.90;;;;;;5012025;28;20029;-78
2022/05/30 02:24:56;;;;;;;3.38;1.33;;;6.20;70.70;;;;;;5012134;28;20026;-77
2022/05/30 02:27:22;;;;;;;3.55;1.45;;;6.20;71.10;;;;;;5012018;28;20085;-78
2022/05/30 02:29:48;;;;;;;1.80;1.20;;;6.20;71.30;;;;;;5011941;28;20022;-78
2022/05/30 02:32:14;;;;;;;1.73;1.30;;;6.20;71.30;;;;;;5013311;28;20120;-78
2022/05/30 02:37:24;;;;;;;3.28;1.52;;;6.20;71.20;;;;;;5017203;28;20084;-78
2022/05/30 02:39:50;;;;;;;2.97;1.20;;;6.30;71.20;;;;;;5015844;28;20029;-78
2022/05/30 02:42:16;;;;;;;3.08;1.33;;;6.30;71.20;;;;;;5015691;28;20026;-78
2022/05/30 02:44:41;;;;;;;2.58;1.20;;;6.20;70.90;;;;;;5015672;28;20049;-78
2022/05/30 02:47:07;;;;;;;1.63;1.13;;;6.20;70.80;;;;;;5015793;28;20026;-78
2022/05/30 02:49:33;;;;;;;1.80;1.40;;;6.20;71.70;;;;;;5015727;28;20026;-78
2022/05/30 02:51:59;;;;;;;3.88;1.25;;;6.20;71.70;;;;;;5015646;28;20034;-78
2022/05/30 02:54:26;;;;;;;3.05;1.38;;;6.20;72.30;;;;;;5015866;28;20029;-79
2022/05/30 02:56:54;;;;;;;2.67;1.27;;;6.20;72.10;;;;;;5015362;28;20121;-77
2022/05/30 02:59:20;;;;;;;5.05;1.42;;;6.30;71.80;;;;;;5015333;28;20022;-76
2022/05/30 03:01:45;;;;;;;2.78;1.02;;;6.30;71.70;;;;;;5014922;28;20068;-77
2022/05/30 03:04:11;;;;;;;3.38;1.00;;;6.40;71.50;;;;;;5015451;28;20053;-78
2022/05/30 03:06:38;;;;;;;4.03;1.25;;;6.40;71.20;;;;;;5015372;28;20018;-77
2022/05/30 03:09:05;;;;;;;2.92;1.38;;;6.40;71.20;;;;;;5014939;28;20439;-77
2022/05/30 03:11:31;;;;;;;1.75;1.23;;;6.40;71.40;;;;;;5015543;28;20065;-78
2022/05/30 03:13:57;;;;;;;3.10;1.60;;;6.40;71.40;;;;;;5015623;28;20033;-77
2022/05/30 03:16:23;;;;;;;3.08;1.10;;;6.30;71.60;;;;;;5014771;28;20430;-77
2022/05/30 03:18:48;;;;;;;3.20;1.50;;;6.20;72.50;;;;;;5014680;28;20057;-77
2022/05/30 03:21:14;;;;;;;3.45;1.30;;;6.20;72.10;;;;;;5015250;28;20390;-77
2022/05/30 03:23:40;;;;;;;5.40;1.83;;;6.10;72.70;;;;;;5014983;28;20030;-78
2022/05/30 03:26:05;;;;;;;2.08;1.15;;;6.10;72.90;;;;;;5015087;28;20018;-78
2022/05/30 03:28:32;;;;;;;4.50;1.83;;;6.10;73.60;;;;;;5014652;28;20052;-78
2022/05/30 03:30:59;;;;;;;3.83;1.88;;;6.00;73.90;;;;;;5014756;28;20446;-78
2022/05/30 03:33:24;;;;;;;4.47;2.10;;;6.00;73.90;;;;;;5014833;28;20045;-77
2022/05/30 03:35:50;;;;;;;3.92;1.67;;;6.00;74.10;;;;;;5014645;28;20050;-78
2022/05/30 03:38:16;;;;;;;2.70;1.60;;;5.90;74.40;;;;;;5014677;28;20167;-77
2022/05/30 03:40:42;;;;;;;4.63;1.90;;;6.00;74.50;;;;;;5014433;28;20521;-77
2022/05/30 03:43:09;;;;;;;3.85;1.80;;;6.00;74.40;;;;;;5013539;28;20022;-78
2022/05/30 03:45:40;;;;;;;5.80;2.25;;;6.00;74.40;;;;;;5013966;28;20029;-77
2022/05/30 03:48:07;;;;;;;3.55;1.95;;;6.00;74.20;;;;;;5014406;28;20021;-77
2022/05/30 03:50:33;;;;;;;4.55;2.00;;;6.00;74.20;;;;;;5014169;28;20479;-77
2022/05/30 03:53:04;;;;;;;4.57;2.33;;;6.00;74.20;;;;;;5015030;28;20099;-78
2022/05/30 03:55:32;;;;;;;2.72;1.38;;;6.00;74.20;;;;;;5014243;28;20026;-78
2022/05/30 03:57:57;;;;;;;5.57;1.90;;;6.00;74.50;;;;;;5014025;28;20072;-78
2022/05/30 04:00:24;;;;;;;5.07;1.90;;;6.10;74.30;;;;;;5014236;28;20026;-78
2022/05/30 04:02:49;;;;;;;2.75;1.58;;;6.20;74.00;;;;;;5014319;28;20025;-78
2022/05/30 04:05:20;;;;;;;2.50;1.27;;;6.30;73.60;;;;;;5014253;28;20537;-78
2022/05/30 04:07:46;;;;;;;3.85;1.48;;;6.40;73.20;;;;;;5014286;28;20026;-78
2022/05/30 04:10:12;;;;;;;4.35;1.52;;;6.40;72.90;;;;;;5014272;28;20029;-78
2022/05/30 04:12:38;;;;;;;2.92;1.25;;;6.40;72.70;;;;;;5013764;28;20041;-77
2022/05/30 04:15:08;;;;;;;7.22;2.13;;;6.50;72.60;;;;;;5013955;28;20022;-77
2022/05/30 04:17:37;;;;;;;5.15;1.75;;;6.50;72.60;;;;;;5013863;28;20026;-78
2022/05/30 04:20:04;;;;;;;3.60;1.98;;;6.50;72.90;;;;;;5013768;28;20417;-77
2022/05/30 04:22:30;;;;;;;2.83;1.63;;;6.50;72.90;;;;;;5013790;28;20058;-77
2022/05/30 04:24:55;;;;;;;5.65;1.70;;;6.50;73.00;;;;;;5013597;28;20025;-78
2022/05/30 04:27:21;;;;;;;4.43;2.10;;;6.60;72.90;;;;;;5013803;28;20029;-77
2022/05/30 04:29:48;;;;;;;4.00;2.03;;;6.60;72.90;;;;;;5013499;28;20030;-77
2022/05/30 04:32:16;;;;;;;8.68;2.35;;;6.70;72.30;;;;;;5013750;28;20505;-78
2022/05/30 04:34:42;;;;;;;2.75;1.80;;;6.80;72.10;;;;;;5013641;28;20033;-78
2022/05/30 04:37:08;;;;;;;4.45;2.40;;;6.80;71.90;;;;;;5013246;28;20107;-76
2022/05/30 04:39:34;;;;;;;4.15;2.10;;;6.90;71.60;;;;;;5013166;28;20112;-76
2022/05/30 04:41:59;;;;;;;2.53;1.60;;;7.00;70.90;;;;;;5013599;28;20467;-76
2022/05/30 04:44:25;;;;;;;3.63;1.80;;;7.10;71.00;;;;;;5013461;28;20113;-77
2022/05/30 04:46:57;;;;;;;3.03;1.67;;;7.20;71.00;;;;;;5013381;28;20497;-77
2022/05/30 04:49:24;;;;;;;5.97;1.70;;;7.30;70.90;;;;;;5013258;28;20029;-78
2022/05/30 04:51:51;;;;;;;4.72;1.50;;;7.40;70.40;;;;;;5013367;28;20124;-78
2022/05/30 04:54:17;;;;;;;4.07;1.60;;;7.50;70.00;;;;;;5012687;28;20029;-77
2022/05/30 04:56:43;;;;;;;2.92;1.38;;;7.60;69.80;;;;;;5013325;28;20029;-85
2022/05/30 04:59:09;;;;;;;2.45;1.77;;;7.60;69.30;;;;;;5013748;28;20022;-80
2022/05/30 05:01:36;;;;;;;4.78;1.77;;;7.60;69.30;;;;;;5013061;28;20018;-81
2022/05/30 05:04:07;;;;;;;9.82;2.30;;;7.50;69.70;;;;;;5013121;28;20121;-79
2022/05/30 05:06:34;;;;;;;5.72;2.38;;;7.60;70.80;;;;;;4996377;28;20475;-77
2022/05/30 05:09:07;;;;;;;5.25;2.50;;;7.60;70.40;;;;;;5012687;28;20049;-79
2022/05/30 05:11:36;;;;;;;4.95;2.47;;;7.60;70.00;;;;;;5012939;28;20034;-79
2022/05/30 05:14:02;;;;;;;7.70;2.70;;;7.80;69.90;;;;;;5013319;28;20038;-79
2022/05/30 05:16:30;;;;;;;6.28;2.35;;;7.90;69.50;;;;;;5012946;28;20057;-79
2022/05/30 05:18:58;;;;;;;5.80;2.75;;;8.00;69.20;;;;;;4997774;28;20497;-80
2022/05/30 05:21:30;;;;;;;6.72;1.88;;;8.30;68.90;;;;;;5016011;28;20041;-80
2022/05/30 05:23:58;;;;;;;6.05;1.92;;;8.40;68.40;;;;;;5015740;28;20483;-79
2022/05/30 05:26:24;;;;;;;5.15;2.20;;;8.50;68.30;;;;;;5013307;28;20029;-80
2022/05/30 05:28:51;;;;;;;7.72;2.00;;;8.60;68.00;;;;;;5012804;28;20033;-80
2022/05/30 05:31:33;;;;;;;2.92;1.90;;;8.70;68.00;;;;;;5012937;28;20022;-80
2022/05/30 05:34:05;;;;;;;3.88;2.08;;;8.80;67.80;;;;;;4996032;28;20131;-80
2022/05/30 05:36:34;;;;;;;4.75;1.98;;;8.90;67.90;;;;;;5012090;28;20060;-80
2022/05/30 05:39:00;;;;;;;4.75;1.52;;;9.00;67.70;;;;;;5006562;28;20060;-79
2022/05/30 05:41:26;;;;;;;6.57;1.88;;;9.10;67.50;;;;;;5009135;28;20022;-81
2022/05/30 05:43:55;;;;;;;3.67;1.58;;;9.10;67.20;;;;;;5024939;28;20410;-80
2022/05/30 05:46:23;;;;;;;3.60;1.70;;;9.30;67.00;;;;;;5023074;28;20072;-80
2022/05/30 05:48:56;;;;;;;4.97;2.03;;;9.50;66.50;;;;;;5021834;28;20029;-79
2022/05/30 05:51:23;;;;;;;4.70;1.98;;;9.50;66.00;;;;;;5020643;28;20561;-79
2022/05/30 05:53:50;;;;;;;5.35;1.60;;;9.60;65.10;;;;;;5020110;28;20080;-80
2022/05/30 05:56:21;;;;;;;6.80;2.13;;;9.80;64.60;;;;;;4997398;28;20061;-79
2022/05/30 05:58:47;;;;;;;7.65;3.03;;;9.90;63.90;;;;;;5013079;28;20026;-79
2022/05/30 06:01:17;;;;;;;5.53;2.10;;;9.90;63.60;;;;;;5011527;28;20509;-80
2022/05/30 06:03:43;;;;;;;8.32;2.03;;;10.00;63.20;;;;;;5011408;28;20042;-79
2022/05/30 06:06:08;;;;;;;3.33;1.70;;;10.00;63.40;;;;;;5011054;28;20072;-79
2022/05/30 06:08:34;;;;;;;7.43;1.85;;;10.20;63.20;;;;;;5011446;28;20083;-81
2022/05/30 06:11:15;;;;;;;3.92;1.95;;;10.30;62.60;;;;;;4995325;28;20431;-80
2022/05/30 06:13:45;;;;;;;5.97;1.90;;;10.20;62.10;;;;;;5012919;28;20034;-81
2022/05/30 06:16:16;;;;;;;3.63;1.65;;;10.10;63.20;;;;;;4995429;28;20036;-81
2022/05/30 06:18:42;;;;;;;4.60;1.70;;;10.10;63.30;;;;;;4995311;28;20125;-81
2022/05/30 06:21:11;;;;;;;4.45;1.80;;;10.10;64.20;;;;;;5011096;28;20617;-80
2022/05/30 06:23:36;;;;;;;4.50;1.65;;;10.20;63.60;;;;;;5011040;28;20394;-80
2022/05/30 06:26:10;;;;;;;2.97;1.75;;;10.30;63.90;;;;;;5010953;28;20113;-80
2022/05/30 06:28:38;;;;;;;3.50;1.30;;;10.40;63.50;;;;;;5011863;28;20026;-80
2022/05/30 06:31:25;;;;;;;4.80;1.60;;;10.60;63.00;;;;;;5011737;28;20034;-79
2022/05/30 06:33:53;;;;;;;3.63;1.42;;;10.60;63.30;;;;;;5012438;28;20045;-79
2022/05/30 06:36:20;;;;;;;4.03;1.60;;;10.60;63.80;;;;;;5010977;28;20103;-81
2022/05/30 06:38:47;;;;;;;4.80;1.77;;;10.50;63.70;;;;;;5011338;28;20029;-79
2022/05/30 06:41:17;;;;;;;3.53;1.60;;;10.40;63.60;;;;;;5011300;28;20025;-79
2022/05/30 06:43:43;;;;;;;3.55;1.85;;;10.40;64.10;;;;;;5010989;28;20140;-80
2022/05/30 06:46:10;;;;;;;4.18;2.00;;;10.40;64.00;;;;;;5010906;28;20490;-79
2022/05/30 06:48:39;;;;;;;2.38;1.52;;;10.50;64.50;;;;;;5011097;28;20163;-80
2022/05/30 06:51:06;;;;;;;12.45;2.78;;;10.50;65.00;;;;;;5010996;28;20053;-72
2022/05/30 06:53:32;;;;;;;6.72;1.70;;;10.80;70.60;;;;;;5010699;28;20041;-72
2022/05/30 06:55:58;;;;;;;5.90;1.80;;;11.30;68.10;;;;;;5012202;28;20026;-73
2022/05/30 06:58:24;;;;;;;6.63;1.70;;;11.80;68.40;;;;;;5011224;28;20107;-73
2022/05/30 07:00:50;;;;;;;5.80;1.73;;;12.30;62.90;;;;;;5011000;28;20057;-74
2022/05/30 07:03:17;;;;;;;9.65;1.77;;;12.60;60.40;;;;;;5010914;28;20025;-74
2022/05/30 07:05:44;;;;;;;5.28;1.95;;;13.00;61.10;;;;;;5011047;28;20383;-74
2022/05/30 07:08:12;;;;;;;5.13;1.95;;;13.40;59.00;;;;;;5012102;28;20025;-74
2022/05/30 07:10:38;;;;;;;2.97;1.77;;;13.70;57.70;;;;;;5012214;28;20022;-74
2022/05/30 07:13:05;;;;;;;4.85;1.70;;;13.90;56.20;;;;;;5011876;28;20148;-74
2022/05/30 07:15:34;;;;;;;3.70;1.75;;;14.30;54.00;;;;;;5011957;28;20088;-74
2022/05/30 07:18:05;;;;;;;6.63;1.60;;;14.40;53.20;;;;;;5013206;28;20022;-73
2022/05/30 07:20:31;;;;;;;5.30;1.83;;;14.00;52.80;;;;;;5015499;28;20018;-72
2022/05/30 07:22:56;;;;;;;7.50;1.40;;;14.20;53.90;;;;;;5015741;28;20595;-73
2022/05/30 07:25:22;;;;;;;9.40;2.33;;;13.90;55.00;;;;;;5014195;28;20079;-73
2022/05/30 07:27:47;;;;;;;4.15;2.20;;;13.80;55.20;;;;;;5015558;28;20474;-73
2022/05/30 07:30:13;;;;;;;5.95;1.60;;;14.00;54.50;;;;;;5014054;28;20022;-72
2022/05/30 07:32:38;;;;;;;5.63;1.52;;;13.90;54.90;;;;;;5015182;28;20049;-73
2022/05/30 07:35:04;;;;;;;5.63;1.98;;;14.10;54.30;;;;;;5013743;28;20018;-73
2022/05/30 07:37:30;;;;;;;4.80;2.08;;;14.40;53.00;;;;;;5015348;28;20096;-73
2022/05/30 07:39:56;;;;;;;3.38;1.70;;;14.60;52.10;;;;;;5015271;28;20105;-72
2022/05/30 07:42:21;;;;;;;4.63;1.60;;;14.80;50.90;;;;;;5015097;28;20480;-73
2022/05/30 07:44:47;;;;;;;6.88;2.13;;;15.00;50.00;;;;;;5015117;28;20033;-72
2022/05/30 07:47:16;;;;;;;6.13;1.92;;;14.90;49.40;;;;;;5014939;28;20026;-73
2022/05/30 07:49:41;;;;;;;4.32;1.73;;;15.00;49.80;;;;;;5014803;28;20092;-72
2022/05/30 07:52:07;;;;;;;4.28;1.63;;;14.80;48.60;;;;;;5014753;28;20483;-72
2022/05/30 07:54:34;;;;;;;2.45;1.48;;;14.90;49.20;;;;;;5014844;28;20087;-72
2022/05/30 07:57:00;;;;;;;6.78;1.80;;;15.10;48.00;;;;;;5014983;28;20097;-72
2022/05/30 07:59:25;;;;;;;3.70;1.70;;;15.20;48.50;;;;;;5014872;28;20045;-73
2022/05/30 08:01:51;;;;;;;6.68;2.00;;;15.30;46.60;;;;;;5015017;28;20030;-73
2022/05/30 08:04:17;;;;;;;3.35;1.20;;;15.40;44.40;;;;;;5015000;28;20030;-73
2022/05/30 08:06:42;;;;;;;4.68;1.40;;;15.30;44.30;;;;;;5015000;28;20101;-72
2022/05/30 08:09:08;;;;;;;2.47;1.23;;;15.40;44.60;;;;;;5015131;28;20546;-73
2022/05/30 08:11:33;;;;;;;5.57;1.73;;;15.40;44.70;;;;;;5014927;28;20548;-73
2022/05/30 08:13:59;;;;;;;3.25;1.35;;;15.30;45.80;;;;;;5015022;28;20395;-74
2022/05/30 08:16:27;;;;;;;4.00;1.25;;;15.30;44.90;;;;;;5014918;28;20040;-73
2022/05/30 08:18:53;;;;;;;5.03;1.42;;;14.90;45.80;;;;;;5014732;28;20026;-76
2022/05/30 08:21:19;;;;;;;3.78;1.33;;;14.30;45.40;;;;;;5013526;28;20022;-81
2022/05/30 08:23:45;;;;;;;3.13;1.40;;;14.00;45.20;;;;;;5013282;28;20109;-81
2022/05/30 08:26:13;;;;;;;4.63;0.93;;;14.00;46.20;;;;;;5014216;28;20022;-81
2022/05/30 08:28:40;;;;;;;4.38;1.15;;;14.20;46.40;;;;;;5013610;28;20033;-81
2022/05/30 08:31:06;;;;;;;2.90;0.90;;;14.40;45.70;;;;;;5013511;28;20033;-80
2022/05/30 08:33:31;;;;;;;6.25;1.20;;;14.40;45.00;;;;;;5013727;28;20042;-80
2022/05/30 08:36:05;;;;;;;2.40;1.05;;;14.50;44.80;;;;;;5013472;28;20077;-81
2022/05/30 08:38:34;;;;;;;3.60;1.23;;;14.60;44.20;;;;;;5013856;28;20053;-81
2022/05/30 08:43:49;;;;;;;1.67;0.95;;;14.90;44.40;;;;;;5014926;28;20040;-79
2022/05/30 08:46:28;;;;;;;3.28;1.10;;;15.20;44.00;;;;;;5014276;28;20475;-78
2022/05/30 08:49:05;;;;;;;5.43;3.50;;;15.30;41.80;;;;;;5013062;28;20026;-80
2022/05/30 08:51:57;;;;;;;2.50;1.17;;;15.10;39.60;;;;;;5012548;28;20022;-81
2022/05/30 08:54:59;;;;;;;3.50;1.20;;;15.10;40.70;;;;;;5013117;28;20026;-80
2022/05/30 08:58:01;;;;;;;4.72;1.25;;;15.10;42.30;;;;;;5013619;28;20029;-80
2022/05/30 09:00:47;;;;;;;2.15;0.90;;;15.00;39.70;;;;;;5013843;28;20477;-80
2022/05/30 09:03:27;;;;;;;3.80;1.10;;;15.00;41.20;;;;;;5012585;28;20022;-81
2022/05/30 09:06:08;;;;;;;6.63;1.30;;;15.00;39.70;;;;;;5013542;28;20095;-80
2022/05/30 09:08:40;;;;;;;3.65;1.42;;;15.20;41.40;;;;;;5012636;28;20057;-81
2022/05/30 09:11:31;;;;;;;3.00;0.90;;;15.50;41.50;;;;;;5012084;28;20025;-78
2022/05/30 09:14:02;;;;;;;3.60;1.25;;;15.80;39.50;;;;;;5012299;28;20095;-80
2022/05/30 09:16:32;;;;;;;3.70;1.48;;;15.80;37.80;;;;;;5012366;28;20026;-80
2022/05/30 09:19:01;;;;;;;3.78;1.33;;;15.50;37.20;;;;;;5012928;28;20056;-80
2022/05/30 09:21:29;;;;;;;2.50;1.00;;;15.60;37.60;;;;;;5012510;28;20030;-79
2022/05/30 09:23:55;;;;;;;2.20;0.90;;;15.70;38.60;;;;;;5012668;28;20037;-79
2022/05/30 09:26:25;;;;;;;3.25;0.90;;;15.60;36.10;;;;;;5014155;28;20044;-79
2022/05/30 09:28:52;;;;;;;2.58;1.15;;;15.30;36.50;;;;;;5013544;28;20018;-79
2022/05/30 09:31:39;;;;;;;6.45;1.08;;;15.20;36.90;;;;;;5015948;28;20036;-79
2022/05/30 09:34:27;;;;;;;2.90;1.02;;;15.30;37.90;;;;;;5018035;28;20088;-79
2022/05/30 09:36:53;;;;;;;3.95;1.00;;;15.50;36.10;;;;;;5003149;28;20084;-80
2022/05/30 09:39:25;;;;;;;5.35;1.13;;;15.60;35.40;;;;;;5012886;28;20467;-81
2022/05/30 09:42:01;;;;;;;1.65;0.93;;;15.70;35.10;;;;;;5012134;28;20036;-80
2022/05/30 09:44:42;;;;;;;2.90;0.90;;;15.60;34.70;;;;;;5012961;28;20026;-80
2022/05/30 09:47:17;;;;;;;4.30;1.85;;;15.70;35.00;;;;;;5012191;28;20026;-79
2022/05/30 09:49:49;;;;;;;2.58;0.90;;;15.70;35.30;;;;;;5012821;28;20026;-76
2022/05/30 09:52:33;;;;;;;1.17;0.80;;;15.70;35.80;;;;;;5012515;28;20038;-77
2022/05/30 09:55:01;;;;;;;4.38;0.80;;;15.80;35.00;;;;;;5013311;28;20475;-77
2022/05/30 09:57:43;;;;;;;2.30;1.05;;;15.90;33.80;;;;;;5016999;28;20030;-76
2022/05/30 10:00:20;;;;;;;2.25;0.90;;;16.00;33.30;;;;;;5014776;28;20096;-78
2022/05/30 10:03:07;;;;;;;2.90;1.00;;;16.30;33.80;;;;;;5013270;28;20030;-80
2022/05/30 10:05:36;;;;;;;1.75;0.80;;;16.60;33.90;;;;;;4980638;28;20045;-78
2022/05/30 10:08:20;;;;;;;1.48;0.90;;;17.10;34.70;;;;;;5011664;28;20109;-78
2022/05/30 10:10:52;;;;;;;2.83;0.63;;;17.30;32.60;;;;;;5011733;28;20111;-80
2022/05/30 10:13:34;;;;;;;1.73;1.00;;;17.50;30.80;;;;;;4995674;28;20115;-79
2022/05/30 10:16:04;;;;;;;3.50;0.90;;;17.50;30.20;;;;;;4995852;28;20041;-81
2022/05/30 10:18:36;;;;;;;3.17;0.93;;;17.70;30.10;;;;;;5011759;28;20344;-80
2022/05/30 10:21:36;;;;;;;2.65;1.27;;;17.20;28.30;;;;;;5011589;28;20030;-78
2022/05/30 10:30:19;;;;;;;4.22;0.93;;;17.70;29.80;;;;;;5012711;28;20140;-78
2022/05/30 10:36:42;;;;;;;1.50;0.60;;;18.50;30.00;;;;;;5006078;28;20061;-81
2022/05/30 10:39:11;;;;;;;1.60;0.80;;;18.50;26.30;;;;;;4981388;28;20046;-83
2022/05/30 10:42:05;;;;;;;1.63;0.82;;;18.40;27.10;;;;;;5011126;28;20033;-79
2022/05/30 10:44:36;;;;;;;1.20;0.73;;;18.30;27.40;;;;;;5010860;28;20018;-78
2022/05/30 10:47:26;;;;;;;3.80;0.90;;;18.10;27.50;;;;;;5011488;28;20049;-79
2022/05/30 10:50:04;;;;;;;1.77;0.50;;;18.00;27.80;;;;;;5010397;28;20030;-78
2022/05/30 10:52:42;;;;;;;1.77;1.08;;;17.50;27.20;;;;;;5010800;28;20084;-79
2022/05/30 10:55:14;;;;;;;2.00;0.65;;;17.50;28.90;;;;;;5014581;28;20049;-78
2022/05/30 10:58:11;;;;;;;2.40;0.82;;;17.80;28.40;;;;;;5014685;28;20040;-78
2022/05/30 11:00:43;;;;;;;1.88;0.75;;;18.40;28.70;;;;;;4984070;28;20037;-78
2022/05/30 11:03:45;;;;;;;2.05;0.80;;;19.00;28.00;;;;;;5014262;28;20117;-77
2022/05/30 11:06:18;;;;;;;2.50;1.00;;;19.40;24.40;;;;;;4970292;28;20408;-78
2022/05/30 11:08:55;;;;;;;3.25;1.00;;;19.30;22.90;;;;;;5014326;28;20057;-79
2022/05/30 11:11:35;;;;;;;2.20;0.77;;;19.10;23.80;;;;;;5014006;28;20025;-79
2022/05/30 11:14:27;;;;;;;4.18;0.98;;;19.20;23.50;;;;;;5015758;28;20108;-80
2022/05/30 11:17:11;;;;;;;2.90;0.70;;;19.10;23.10;;;;;;5014753;28;20034;-80
2022/05/30 11:20:05;;;;;;;2.15;0.77;;;19.00;24.10;;;;;;5014161;28;20057;-77
2022/05/30 11:22:42;;;;;;;2.45;0.52;;;19.20;24.20;;;;;;5014119;28;20022;-80
2022/05/30 11:25:14;;;;;;;3.17;0.88;;;19.10;23.20;;;;;;5014489;28;20041;-78
2022/05/30 11:28:03;;;;;;;1.08;0.73;;;18.70;26.00;;;;;;5014321;28;20117;-77
2022/05/30 11:30:38;;;;;;;1.65;0.70;;;18.60;25.00;;;;;;5001391;28;20454;-79
2022/05/30 11:33:41;;;;;;;1.63;0.75;;;19.10;27.30;;;;;;5014358;28;20092;-78
2022/05/30 11:36:42;;;;;;;2.63;0.85;;;19.20;25.00;;;;;;5014174;28;20397;-83
2022/05/30 11:39:16;;;;;;;2.67;0.80;;;19.40;22.90;;;;;;5014041;28;20029;-83
2022/05/30 11:41:55;;;;;;;2.53;0.90;;;19.70;22.60;;;;;;5014992;28;20028;-77
2022/05/30 11:44:46;;;;;;;1.70;0.77;;;19.70;22.60;;;;;;5017301;28;20028;-79
2022/05/30 11:47:20;;;;;;;2.30;0.60;;;19.70;22.10;;;;;;5014106;28;20362;-80
2022/05/30 11:50:09;;;;;;;4.97;0.93;;;19.40;22.50;;;;;;5016004;28;20026;-85
2022/05/30 11:52:55;;;;;;;2.63;0.80;;;19.60;24.30;;;;;;5017953;28;20033;-86
2022/05/30 11:55:35;;;;;;;2.47;0.93;;;19.10;23.80;;;;;;5014913;28;20022;-86
2022/05/30 11:58:23;;;;;;;2.75;0.90;;;19.10;24.10;;;;;;5014366;28;20030;-78
2022/05/30 12:00:50;;;;;;;2.42;0.85;;;19.40;23.70;;;;;;5014447;28;20026;-79
2022/05/30 12:03:35;;;;;;;2.10;0.90;;;19.70;22.30;;;;;;5013852;28;20030;-81
2022/05/30 12:06:10;;;;;;;2.72;0.90;;;19.70;23.30;;;;;;5012756;28;20025;-81
2022/05/30 12:08:36;;;;;;;;;;;19.60;22.70;;;;;;5014445;28;20026;-82
2022/05/30 12:11:27;;;;;;;4.22;0.98;;;19.20;22.30;;;;;;5013777;28;20285;-84
2022/05/30 12:14:06;;;;;;;2.00;0.63;;;19.20;21.20;;;;;;5013500;28;20033;-82
2022/05/30 12:16:41;;;;;;;3.15;0.70;;;19.60;21.80;;;;;;5013733;28;20117;-84
2022/05/30 12:24:58;;;;;;;6.55;0.85;;;20.10;22.90;;;;;;5015413;28;20076;-84
2022/05/30 12:27:28;;;;;;;5.10;0.70;;;19.90;19.70;;;;;;5014478;28;20482;-83
2022/05/30 12:29:54;;;;;;;3.65;0.80;;;20.00;19.30;;;;;;5014829;28;20022;-80
2022/05/30 12:32:29;;;;;;;1.45;0.68;;;20.20;20.40;;;;;;5014031;28;20146;-86
2022/05/30 12:34:57;;;;;;;2.17;0.68;;;20.50;19.50;;;;;;5013589;28;20378;-77
2022/05/30 12:37:38;;;;;;;3.03;0.90;;;21.00;20.00;;;;;;5014502;28;20182;-84
2022/05/30 12:40:10;;;;;;;1.58;0.55;;;21.20;19.50;;;;;;5013812;28;20117;-80
2022/05/30 12:42:42;;;;;;;2.17;0.82;;;21.20;20.30;;;;;;5013387;28;20026;-87
2022/05/30 12:45:36;;;;;;;2.05;0.60;;;21.10;19.60;;;;;;5014838;28;20028;-79
2022/05/30 12:48:10;;;;;;;3.38;1.00;;;21.30;19.80;;;;;;5013359;28;20116;-81
2022/05/30 12:50:38;;;;;;;1.15;0.60;;;21.60;20.30;;;;;;5013037;28;20029;-81
2022/05/30 12:53:05;;;;;;;1.45;0.65;;;21.80;19.60;;;;;;5012557;28;20088;-81
2022/05/30 12:55:41;;;;;;;2.40;0.57;;;21.90;17.50;;;;;;5013236;28;20049;-82
2022/05/30 12:58:10;;;;;;;0.68;0.52;;;22.00;17.80;;;;;;5012866;28;20022;-82
2022/05/30 13:00:50;;;;;;;1.48;0.60;;;22.20;18.90;;;;;;5012833;28;20033;-82
2022/05/30 13:03:30;;;;;;;3.03;0.70;;;22.60;18.50;;;;;;5012767;28;20030;-82
2022/05/30 13:06:05;;;;;;;3.03;0.82;;;22.60;17.20;;;;;;5012685;28;20022;-81
2022/05/30 13:08:59;;;;;;;5.32;0.80;;;22.20;17.50;;;;;;5013109;28;20025;-81
2022/05/30 13:12:01;;;;;;;2.00;0.63;;;21.60;18.70;;;;;;5013273;28;20033;-82
2022/05/30 13:14:58;;;;;;;1.08;0.60;;;21.90;17.80;;;;;;5013290;28;20546;-82
2022/05/30 13:17:46;;;;;;;1.92;0.60;;;22.30;17.40;;;;;;5012241;28;20061;-82
2022/05/30 13:20:18;;;;;;;2.17;0.80;;;22.10;17.20;;;;;;5013489;28;20084;-82
2022/05/30 13:22:48;;;;;;;1.55;0.63;;;22.20;17.60;;;;;;4997467;28;20080;-83
2022/05/30 13:25:23;;;;;;;2.55;0.73;;;21.80;16.80;;;;;;5004351;28;20125;-83
2022/05/30 13:27:49;;;;;;;1.67;0.68;;;21.60;17.80;;;;;;5015431;28;20014;-82
2022/05/30 13:30:25;;;;;;;2.65;0.68;;;21.20;18.40;;;;;;5035994;28;20010;-83
2022/05/30 13:32:51;;;;;;;;;;;20.80;18.50;;;;;;5034209;28;20026;-84
2022/05/30 13:35:18;;;;;;;2.00;0.57;;;21.00;18.70;;;;;;5016772;28;19905;-83
2022/05/30 13:37:52;;;;;;;1.65;0.60;;;21.00;18.90;;;;;;5012620;28;20076;-83